SBKP METAR and TAF | Updated Today

SBKP METAR

Viracopos International Airport

Observation time: 33 min. ago

SBKP 251900Z 04007KT 360V080 CAVOK 25/06 Q1022

Need help? Read our tutorial on how to read METARs or read the parsed version below.

Viracopos International Airport (SBKP) METAR

  • Weather conditions on Wed, 25 May 2022 19:00:00 +0000 (33 min. ago):
  • Present conditions: Dry
  • Clouds: Clear skies
  • Visibility: Greater than 10 km
  • Wind: 40 degrees at 7 knots
  • Temperature: 25 celsius
  • Dew point: 6 celsius
  • Pressure: 1022 millibars
  • Remarks: None


Useful to know...

SBKP TAF

Viracopos International Airport

TAF SBKP 251650Z 2518/2618 04005KT CAVOK TX26/2518Z TN12/2609Z BECMG 2519/2521 13005KT BECMG 2613/2615 35007KT RMK PGL
Observation time: 2:43 hr. ago
Need help? Read our tutorial on how to read TAFs or read the parsed version below.

Parsed version of TAF for Viracopos International Airport (SBKP)

  • From 25 May at 18:00 UTC, to day 26 of the month at 18:00 UTC
  • Visibility: Greater than 10 km
  • Wind: 40 degrees at 5
  • Expected to arise soon, from 25 May at 19:00 UTC, to day 25 of the month at 21:00 UTC
  • Wind: 130 degrees at 5
  • Expected to arise soon, from 26 May at 13:00 UTC, to day 26 of the month at 15:00 UTC
  • Wind: 350 degrees at 7

Airports near SBKP